createdAt,value
2018-09-12T00:00:52.549Z,3.07
2018-09-12T00:03:19.931Z,2.77
2018-09-12T00:05:47.339Z,2.90
2018-09-12T00:08:14.711Z,2.63
2018-09-12T00:10:42.087Z,3.03
2018-09-12T00:13:10.347Z,2.90
2018-09-12T00:15:37.767Z,3.37
2018-09-12T00:18:05.617Z,3.43
2018-09-12T00:20:33.031Z,3.00
2018-09-12T00:23:00.403Z,2.47
2018-09-12T00:25:27.998Z,2.63
2018-09-12T00:27:55.403Z,3.10
2018-09-12T00:30:22.775Z,2.90
2018-09-12T00:32:50.271Z,3.10
2018-09-12T00:35:17.687Z,2.60
2018-09-12T00:37:45.123Z,2.67
2018-09-12T00:40:12.523Z,2.67
2018-09-12T00:42:40.127Z,2.80
2018-09-12T00:45:07.639Z,2.70
2018-09-12T00:47:35.019Z,2.40
2018-09-12T00:50:02.495Z,2.53
2018-09-12T00:52:29.896Z,2.60
2018-09-12T00:54:57.271Z,2.40
2018-09-12T00:57:24.683Z,2.53
2018-09-12T00:59:52.056Z,2.30
2018-09-12T01:02:19.679Z,2.47
2018-09-12T01:04:47.063Z,2.40
2018-09-12T01:07:14.679Z,2.80
2018-09-12T01:09:42.208Z,2.43
2018-09-12T01:12:09.578Z,2.40
2018-09-12T01:14:37.039Z,2.10
2018-09-12T01:17:04.577Z,2.80
2018-09-12T01:19:32.034Z,2.47
2018-09-12T01:21:59.548Z,3.03
2018-09-12T01:24:26.967Z,2.30
2018-09-12T01:26:54.379Z,2.00
2018-09-12T01:29:23.730Z,2.00
2018-09-12T01:31:51.131Z,2.17
2018-09-12T01:34:18.504Z,2.50
2018-09-12T01:36:45.906Z,2.00
2018-09-12T01:39:13.300Z,2.30
2018-09-12T01:41:40.722Z,2.30
2018-09-12T01:44:08.073Z,1.90
2018-09-12T01:46:35.580Z,1.77
2018-09-12T01:49:02.988Z,2.07
2018-09-12T01:51:30.361Z,1.80
2018-09-12T01:53:57.775Z,2.03
2018-09-12T01:56:25.651Z,2.10
2018-09-12T01:58:53.064Z,2.17
2018-09-12T02:01:20.455Z,2.77
2018-09-12T02:03:47.850Z,1.90
2018-09-12T02:06:15.499Z,2.07
2018-09-12T02:08:42.875Z,1.70
2018-09-12T02:11:10.383Z,1.80
2018-09-12T02:13:37.811Z,1.70
2018-09-12T02:16:05.192Z,1.90
2018-09-12T02:18:32.584Z,2.03
2018-09-12T02:21:00.239Z,2.13
2018-09-12T02:23:27.752Z,1.77
2018-09-12T02:25:55.135Z,2.33
2018-09-12T02:28:22.666Z,1.97
2018-09-12T02:30:50.354Z,2.30
2018-09-12T02:33:17.763Z,2.20
2018-09-12T02:35:50.451Z,1.70
2018-09-12T02:38:17.851Z,2.10
2018-09-12T02:40:45.284Z,1.87
2018-09-12T02:43:13.283Z,1.87
2018-09-12T02:45:40.683Z,1.60
2018-09-12T02:48:08.258Z,1.80
2018-09-12T02:50:35.675Z,2.27
2018-09-12T02:53:03.174Z,2.17
2018-09-12T02:55:30.668Z,1.67
2018-09-12T02:57:58.111Z,1.77
2018-09-12T03:00:25.564Z,1.93
2018-09-12T03:02:52.999Z,1.60
2018-09-12T03:05:20.407Z,1.83
2018-09-12T03:07:47.884Z,2.20
2018-09-12T03:10:15.267Z,1.80
2018-09-12T03:12:42.651Z,2.00
2018-09-12T03:15:10.051Z,1.87
2018-09-12T03:17:37.436Z,2.00
2018-09-12T03:20:04.810Z,1.80
2018-09-12T03:22:32.312Z,1.80
2018-09-12T03:24:59.703Z,1.90
2018-09-12T03:27:27.087Z,2.17
2018-09-12T03:29:54.511Z,2.07
2018-09-12T03:32:21.879Z,1.80
2018-09-12T03:34:49.303Z,1.80
2018-09-12T03:37:16.698Z,2.00
2018-09-12T03:39:44.068Z,2.10
2018-09-12T03:42:11.439Z,2.07
2018-09-12T03:44:38.869Z,1.90
2018-09-12T03:47:06.246Z,2.70
2018-09-12T03:49:33.635Z,1.83
2018-09-12T03:52:01.036Z,2.27
2018-09-12T03:54:28.448Z,2.00
2018-09-12T03:56:56.050Z,2.20
2018-09-12T03:59:23.467Z,1.80
2018-09-12T04:01:50.892Z,1.97
2018-09-12T04:04:18.284Z,2.10
2018-09-12T04:06:45.674Z,2.13
2018-09-12T04:09:13.057Z,1.97
2018-09-12T04:11:40.439Z,2.10
2018-09-12T04:14:07.937Z,2.17
2018-09-12T04:16:35.312Z,2.30
2018-09-12T04:19:02.711Z,2.50
2018-09-12T04:21:30.125Z,2.17
2018-09-12T04:23:57.515Z,2.40
2018-09-12T04:26:24.912Z,2.40
2018-09-12T04:28:52.324Z,1.77
2018-09-12T04:31:19.692Z,1.87
2018-09-12T04:33:47.137Z,2.13
2018-09-12T04:36:14.508Z,2.60
2018-09-12T04:38:41.970Z,2.57
2018-09-12T04:41:09.368Z,2.70
2018-09-12T04:43:36.829Z,2.47
2018-09-12T04:46:04.283Z,2.20
2018-09-12T04:48:31.763Z,2.30
2018-09-12T04:50:59.138Z,2.50
2018-09-12T04:53:26.717Z,2.23
2018-09-12T04:55:54.696Z,3.03
2018-09-12T04:58:22.084Z,2.00
2018-09-12T05:00:49.514Z,2.50
2018-09-12T05:03:17.079Z,2.10
2018-09-12T05:05:44.662Z,2.10
2018-09-12T05:08:12.251Z,3.07
2018-09-12T05:10:39.633Z,2.33
2018-09-12T05:13:07.012Z,2.10
2018-09-12T05:15:34.406Z,2.00
2018-09-12T05:18:02.009Z,2.40
2018-09-12T05:20:29.392Z,2.37
2018-09-12T05:22:56.851Z,2.87
2018-09-12T05:25:24.239Z,2.23
2018-09-12T05:27:51.675Z,2.50
2018-09-12T05:30:19.717Z,2.40
2018-09-12T05:32:47.111Z,2.37
2018-09-12T05:35:14.787Z,2.60
2018-09-12T05:37:42.251Z,2.87
2018-09-12T05:40:09.644Z,3.07
2018-09-12T05:42:37.032Z,2.60
2018-09-12T05:45:04.503Z,2.83
2018-09-12T05:47:31.875Z,2.70
2018-09-12T05:49:59.303Z,2.73
2018-09-12T05:52:27.064Z,2.67
2018-09-12T05:54:54.443Z,2.60
2018-09-12T05:57:21.855Z,2.80
2018-09-12T05:59:49.420Z,3.40
2018-09-12T06:02:16.863Z,2.73
2018-09-12T06:04:44.315Z,2.90
2018-09-12T06:07:11.916Z,2.47
2018-09-12T06:09:39.324Z,2.57
2018-09-12T06:12:06.759Z,2.93
2018-09-12T06:14:34.247Z,2.67
2018-09-12T06:17:01.711Z,2.70
2018-09-12T06:19:29.207Z,3.00
2018-09-12T06:21:56.584Z,3.00
2018-09-12T06:24:24.067Z,2.87
2018-09-12T06:26:51.555Z,2.63
2018-09-12T06:29:18.979Z,2.73
2018-09-12T06:31:46.395Z,3.10
2018-09-12T06:34:13.919Z,2.80
2018-09-12T06:36:41.328Z,2.73
2018-09-12T06:39:10.047Z,2.53
2018-09-12T06:41:38.187Z,2.60
2018-09-12T06:44:05.916Z,2.53
2018-09-12T06:46:33.327Z,2.83
2018-09-12T06:49:00.743Z,2.83
2018-09-12T06:51:28.248Z,2.70
2018-09-12T06:53:55.616Z,2.60
2018-09-12T06:56:23.112Z,3.43
2018-09-12T06:58:50.559Z,3.17
2018-09-12T07:01:17.957Z,2.87
2018-09-12T07:03:45.414Z,2.80
2018-09-12T07:06:12.855Z,2.63
2018-09-12T07:08:40.231Z,2.70
2018-09-12T07:11:07.853Z,2.63
2018-09-12T07:13:35.233Z,2.77
2018-09-12T07:16:02.817Z,3.30
2018-09-12T07:18:30.352Z,3.23
2018-09-12T07:20:58.527Z,2.77
2018-09-12T07:23:26.131Z,2.90
2018-09-12T07:25:54.267Z,2.40
2018-09-12T07:28:21.723Z,2.33
2018-09-12T07:30:49.266Z,3.03
2018-09-12T07:33:16.943Z,2.87
2018-09-12T07:35:44.359Z,2.73
2018-09-12T07:38:11.789Z,2.53
2018-09-12T07:40:39.322Z,2.50
2018-09-12T07:43:07.472Z,2.43
2018-09-12T07:45:34.879Z,2.60
2018-09-12T07:48:02.305Z,2.50
2018-09-12T07:50:30.476Z,2.80
2018-09-12T07:52:57.891Z,2.60
2018-09-12T07:55:25.267Z,2.60
2018-09-12T07:57:52.767Z,2.57
2018-09-12T08:00:20.195Z,2.47
2018-09-12T08:02:47.590Z,2.37
2018-09-12T08:05:14.995Z,3.50
2018-09-12T08:07:42.575Z,2.70
2018-09-12T08:10:09.959Z,2.40
2018-09-12T08:12:37.567Z,3.60
2018-09-12T08:15:05.291Z,3.10
2018-09-12T08:17:32.716Z,2.63
2018-09-12T08:20:00.146Z,2.70
2018-09-12T08:22:27.571Z,2.87
2018-09-12T08:24:54.952Z,2.63
2018-09-12T08:27:22.351Z,2.57
2018-09-12T08:29:49.779Z,2.23
2018-09-12T08:32:17.167Z,3.07
2018-09-12T08:34:44.650Z,3.07
2018-09-12T08:37:12.238Z,2.73
2018-09-12T08:39:39.747Z,2.53
2018-09-12T08:42:07.744Z,3.03
2018-09-12T08:44:35.108Z,3.23
2018-09-12T08:47:02.594Z,2.23
2018-09-12T08:49:30.075Z,2.43
2018-09-12T08:51:57.594Z,2.33
2018-09-12T08:54:25.665Z,3.20
2018-09-12T08:56:53.769Z,2.73
2018-09-12T08:59:21.200Z,2.67
2018-09-12T09:01:48.795Z,2.57
2018-09-12T09:04:16.195Z,2.87
2018-09-12T09:06:44.090Z,2.63
2018-09-12T09:09:12.188Z,3.03
2018-09-12T09:11:39.607Z,2.37
2018-09-12T09:14:07.424Z,2.63
2018-09-12T09:16:35.234Z,2.70
2018-09-12T09:19:03.257Z,2.77
2018-09-12T09:21:31.328Z,2.40
2018-09-12T09:23:58.745Z,2.43
2018-09-12T09:26:26.427Z,2.20
2018-09-12T09:28:53.974Z,2.90
2018-09-12T09:31:21.415Z,2.00
2018-09-12T09:33:49.393Z,2.87
2018-09-12T09:36:16.800Z,2.43
2018-09-12T09:38:44.184Z,2.77
2018-09-12T09:41:11.594Z,2.30
2018-09-12T09:43:39.202Z,2.50
2018-09-12T09:46:07.101Z,2.90
2018-09-12T09:48:34.754Z,3.07
2018-09-12T09:51:02.407Z,2.50
2018-09-12T09:53:29.819Z,2.40
2018-09-12T09:55:57.259Z,2.00
2018-09-12T09:58:24.639Z,2.20
2018-09-12T10:00:57.275Z,2.60
2018-09-12T10:03:30.109Z,2.50
2018-09-12T10:06:02.923Z,2.40
2018-09-12T10:08:35.402Z,2.63
2018-09-12T10:11:02.955Z,2.20
2018-09-12T10:13:30.413Z,1.70
2018-09-12T10:15:57.976Z,2.03
2018-09-12T10:18:25.625Z,1.90
2018-09-12T10:20:53.130Z,1.53
2018-09-12T10:23:21.237Z,1.90
2018-09-12T10:25:48.779Z,2.53
2018-09-12T10:28:16.286Z,1.90
2018-09-12T10:30:43.920Z,2.27
2018-09-12T10:33:11.316Z,1.90
2018-09-12T10:35:38.722Z,2.40
2018-09-12T10:38:06.208Z,2.20
2018-09-12T10:40:33.746Z,2.17
2018-09-12T10:43:01.252Z,3.60
2018-09-12T10:45:28.619Z,1.60
2018-09-12T10:47:56.051Z,1.93
2018-09-12T10:50:23.411Z,2.00
2018-09-12T10:52:51.037Z,5.00
2018-09-12T10:55:18.599Z,2.27
2018-09-12T10:57:46.167Z,2.30
2018-09-12T11:00:13.655Z,2.03
2018-09-12T11:02:41.127Z,1.93
2018-09-12T11:05:08.509Z,2.00
2018-09-12T11:07:36.311Z,1.77
2018-09-12T11:10:03.818Z,2.47
2018-09-12T11:12:31.867Z,2.37
2018-09-12T11:14:59.281Z,2.10
2018-09-12T11:17:27.687Z,2.10
2018-09-12T11:19:55.425Z,2.37
2018-09-12T11:22:22.847Z,2.23
2018-09-12T11:24:50.376Z,1.90
2018-09-12T11:27:18.116Z,1.80
2018-09-12T11:29:45.491Z,2.17
2018-09-12T11:32:13.103Z,2.07
2018-09-12T11:34:40.473Z,1.97
2018-09-12T11:37:08.215Z,2.23
2018-09-12T11:39:35.616Z,2.33
2018-09-12T11:42:03.160Z,2.10
2018-09-12T11:44:30.663Z,2.10
2018-09-12T11:46:58.990Z,4.63
2018-09-12T11:49:26.460Z,1.80
2018-09-12T11:51:54.023Z,1.90
2018-09-12T11:54:21.659Z,1.90
2018-09-12T11:56:49.143Z,1.67
2018-09-12T11:59:16.600Z,1.80
2018-09-12T12:01:44.095Z,1.80
2018-09-12T12:04:11.484Z,1.70
2018-09-12T12:06:38.979Z,1.80
2018-09-12T12:09:07.948Z,1.73
2018-09-12T12:11:35.475Z,1.60
2018-09-12T12:14:02.927Z,1.57
2018-09-12T12:16:30.432Z,1.93
2018-09-12T12:18:58.084Z,1.70
2018-09-12T12:21:25.478Z,1.53
2018-09-12T12:23:52.966Z,1.90
2018-09-12T12:26:20.443Z,1.90
2018-09-12T12:28:47.894Z,1.80
2018-09-12T12:31:15.283Z,2.00
2018-09-12T12:33:42.700Z,1.60
2018-09-12T12:36:10.079Z,1.63
2018-09-12T12:38:37.927Z,2.00
2018-09-12T12:41:05.783Z,1.57
2018-09-12T12:43:33.167Z,1.50
2018-09-12T12:46:00.663Z,1.77
2018-09-12T12:48:28.107Z,2.20
2018-09-12T12:50:55.505Z,2.17
2018-09-12T12:53:22.998Z,2.60
2018-09-12T12:55:50.636Z,1.70
2018-09-12T12:58:18.170Z,1.50
2018-09-12T13:00:45.662Z,1.80
2018-09-12T13:03:13.183Z,2.13
2018-09-12T13:05:40.615Z,1.90
2018-09-12T13:08:08.118Z,1.70
2018-09-12T13:10:35.537Z,4.10
2018-09-12T13:13:02.949Z,4.17
2018-09-12T13:15:30.438Z,1.70
2018-09-12T13:17:57.837Z,2.00
2018-09-12T13:20:25.243Z,1.80
2018-09-12T13:22:52.888Z,1.93
2018-09-12T13:25:20.663Z,2.07
2018-09-12T13:27:48.233Z,1.87
2018-09-12T13:30:15.696Z,1.77
2018-09-12T13:32:43.387Z,1.80
2018-09-12T13:35:10.853Z,2.20
2018-09-12T13:37:38.227Z,2.00
2018-09-12T13:40:06.063Z,1.63
2018-09-12T13:42:33.531Z,1.90
2018-09-12T13:45:00.941Z,1.70
2018-09-12T13:47:29.631Z,1.50
2018-09-12T13:49:57.045Z,2.00
2018-09-12T13:52:24.572Z,1.80
2018-09-12T13:54:52.047Z,1.80
2018-09-12T13:57:19.436Z,1.80
2018-09-12T13:59:46.821Z,2.03
2018-09-12T14:02:14.227Z,1.90
2018-09-12T14:04:41.607Z,2.03
2018-09-12T14:07:09.243Z,1.73
2018-09-12T14:09:36.683Z,1.37
2018-09-12T14:12:04.613Z,1.90
2018-09-12T14:14:32.127Z,4.93
2018-09-12T14:16:59.714Z,1.77
2018-09-12T14:19:27.245Z,1.70
2018-09-12T14:21:54.613Z,2.10
2018-09-12T14:24:22.019Z,1.50
2018-09-12T14:26:49.579Z,1.80
2018-09-12T14:29:17.052Z,1.63
2018-09-12T14:31:44.470Z,1.60
2018-09-12T14:34:11.843Z,1.90
2018-09-12T14:36:39.350Z,1.53
2018-09-12T14:39:07.783Z,1.47
2018-09-12T14:41:35.395Z,1.30
2018-09-12T14:44:02.935Z,1.60
2018-09-12T14:46:30.486Z,1.40
2018-09-12T14:48:57.883Z,1.50
2018-09-12T14:51:25.403Z,1.53
2018-09-12T14:53:52.827Z,1.67
2018-09-12T14:56:20.343Z,1.73
2018-09-12T14:58:47.776Z,1.63
2018-09-12T15:01:15.199Z,1.60
2018-09-12T15:03:42.695Z,1.73
2018-09-12T15:06:10.543Z,1.57
2018-09-12T15:08:38.134Z,1.73
2018-09-12T15:11:05.779Z,1.90
2018-09-12T15:13:33.267Z,3.93
2018-09-12T15:16:00.783Z,2.40
2018-09-12T15:18:28.158Z,1.80
2018-09-12T15:20:55.683Z,1.57
2018-09-12T15:23:23.063Z,1.67
2018-09-12T15:25:50.579Z,1.60
2018-09-12T15:28:18.360Z,2.00
2018-09-12T15:30:45.909Z,1.50
2018-09-12T15:33:13.299Z,1.50
2018-09-12T15:35:40.863Z,1.60
2018-09-12T15:38:08.251Z,1.70
2018-09-12T15:40:35.888Z,1.47
2018-09-12T15:43:03.348Z,1.83
2018-09-12T15:45:31.540Z,1.67
2018-09-12T15:47:59.019Z,2.33
2018-09-12T15:50:26.576Z,1.70
2018-09-12T15:52:55.006Z,1.40
2018-09-12T15:55:22.771Z,1.50
2018-09-12T15:57:50.351Z,1.53
2018-09-12T16:00:17.991Z,1.83
2018-09-12T16:02:45.445Z,1.53
2018-09-12T16:05:12.935Z,1.50
2018-09-12T16:07:40.335Z,1.30
2018-09-12T16:10:07.844Z,1.30
2018-09-12T16:12:35.231Z,1.63
2018-09-12T16:15:03.797Z,1.43
2018-09-12T16:17:31.194Z,1.43
2018-09-12T16:19:58.867Z,1.50
2018-09-12T16:22:26.290Z,1.50
2018-09-12T16:24:53.869Z,1.80
2018-09-12T16:27:21.939Z,1.50
2018-09-12T16:29:49.354Z,1.57
2018-09-12T16:32:16.940Z,1.80
2018-09-12T16:34:44.359Z,1.63
2018-09-12T16:37:12.631Z,1.60
2018-09-12T16:39:40.025Z,1.47
2018-09-12T16:42:07.607Z,1.40
2018-09-12T16:44:35.106Z,1.50
2018-09-12T16:47:02.619Z,1.60
2018-09-12T16:49:30.190Z,1.60
2018-09-12T16:51:57.716Z,1.70
2018-09-12T16:54:25.524Z,1.47
2018-09-12T16:56:53.190Z,1.60
2018-09-12T16:59:20.623Z,1.40
2018-09-12T17:01:47.995Z,1.70
2018-09-12T17:04:15.547Z,1.50
2018-09-12T17:06:43.038Z,1.80
2018-09-12T17:09:11.415Z,1.57
2018-09-12T17:11:38.967Z,1.70
2018-09-12T17:14:07.609Z,1.50
2018-09-12T17:16:34.951Z,1.60
2018-09-12T17:19:02.503Z,1.67
2018-09-12T17:21:31.127Z,1.53
2018-09-12T17:23:58.495Z,1.30
2018-09-12T17:26:26.055Z,1.40
2018-09-12T17:28:53.803Z,1.70
2018-09-12T17:31:21.609Z,1.80
2018-09-12T17:33:49.115Z,1.50
2018-09-12T17:36:16.482Z,1.20
2018-09-12T17:38:44.024Z,1.80
2018-09-12T17:41:11.404Z,1.40
2018-09-12T17:43:38.790Z,1.20
2018-09-12T17:46:06.901Z,1.80
2018-09-12T17:48:34.294Z,1.77
2018-09-12T17:51:01.835Z,1.57
2018-09-12T17:53:29.380Z,1.40
2018-09-12T17:55:57.214Z,1.50
2018-09-12T17:58:24.819Z,1.40
2018-09-12T18:00:52.279Z,1.30
2018-09-12T18:03:19.804Z,1.60
2018-09-12T18:05:47.260Z,1.67
2018-09-12T18:08:14.596Z,1.63
2018-09-12T18:10:42.467Z,1.80
2018-09-12T18:13:10.059Z,1.60
2018-09-12T18:15:37.475Z,1.17
2018-09-12T18:18:06.204Z,1.67
2018-09-12T18:20:33.723Z,1.77
2018-09-12T18:23:01.372Z,1.50
2018-09-12T18:25:29.427Z,1.37
2018-09-12T18:27:57.256Z,1.70
2018-09-12T18:30:25.032Z,1.83
2018-09-12T18:32:52.585Z,1.40
2018-09-12T18:35:20.240Z,1.60
2018-09-12T18:37:48.006Z,1.60
2018-09-12T18:40:15.389Z,1.70
2018-09-12T18:42:42.886Z,1.73
2018-09-12T18:45:10.375Z,1.53
2018-09-12T18:47:37.803Z,1.60
2018-09-12T18:50:05.597Z,1.63
2018-09-12T18:52:33.017Z,1.50
2018-09-12T18:55:00.387Z,1.50
2018-09-12T18:57:27.807Z,1.50
2018-09-12T18:59:55.320Z,1.60
2018-09-12T19:02:22.705Z,1.90
2018-09-12T19:04:50.487Z,1.57
2018-09-12T19:07:18.002Z,1.40
2018-09-12T19:09:45.307Z,1.57
2018-09-12T19:12:12.912Z,1.57
2018-09-12T19:14:40.591Z,1.40
2018-09-12T19:17:08.391Z,1.47
2018-09-12T19:19:35.896Z,1.63
2018-09-12T19:22:03.411Z,1.67
2018-09-12T19:24:30.801Z,1.60
2018-09-12T19:26:58.198Z,1.40
2018-09-12T19:29:25.656Z,2.07
2018-09-12T19:31:53.165Z,1.70
2018-09-12T19:34:20.555Z,1.17
2018-09-12T19:36:48.093Z,1.63
2018-09-12T19:39:15.496Z,1.30
2018-09-12T19:41:43.262Z,1.60
2018-09-12T19:44:10.643Z,1.50
2018-09-12T19:46:38.411Z,1.60
2018-09-12T19:49:06.039Z,1.57
2018-09-12T19:51:33.463Z,1.57
2018-09-12T19:54:00.927Z,1.70
2018-09-12T19:56:28.455Z,1.60
2018-09-12T19:58:56.151Z,1.40
2018-09-12T20:01:24.411Z,2.10
2018-09-12T20:03:52.195Z,1.50
2018-09-12T20:06:19.750Z,1.87
2018-09-12T20:08:47.123Z,2.03
2018-09-12T20:11:14.686Z,1.43
2018-09-12T20:13:42.430Z,1.37
2018-09-12T20:16:10.250Z,1.70
2018-09-12T20:18:37.681Z,1.60
2018-09-12T20:21:05.131Z,1.47
2018-09-12T20:23:32.601Z,1.30
2018-09-12T20:26:00.043Z,1.67
2018-09-12T20:28:27.423Z,1.50
2018-09-12T20:30:54.927Z,1.57
2018-09-12T20:33:22.503Z,1.50
2018-09-12T20:35:49.863Z,2.00
2018-09-12T20:38:17.314Z,1.73
2018-09-12T20:40:44.739Z,1.40
2018-09-12T20:43:12.147Z,1.53
2018-09-12T20:45:39.627Z,1.40
2018-09-12T20:48:07.011Z,1.40
2018-09-12T20:50:34.523Z,1.47
2018-09-12T20:53:02.055Z,1.23
2018-09-12T20:55:29.439Z,1.60
2018-09-12T20:57:57.034Z,1.27
2018-09-12T21:00:24.440Z,1.43
2018-09-12T21:02:51.826Z,1.80
2018-09-12T21:05:19.406Z,1.57
2018-09-12T21:07:46.863Z,1.20
2018-09-12T21:10:15.211Z,1.17
2018-09-12T21:12:42.617Z,1.50
2018-09-12T21:15:10.067Z,1.50
2018-09-12T21:17:37.519Z,1.10
2018-09-12T21:20:05.047Z,1.30
2018-09-12T21:22:32.421Z,1.40
2018-09-12T21:25:00.131Z,1.43
2018-09-12T21:27:27.527Z,1.30
2018-09-12T21:29:55.202Z,1.40
2018-09-12T21:32:22.892Z,1.40
2018-09-12T21:34:50.639Z,0.90
2018-09-12T21:37:18.493Z,1.47
2018-09-12T21:39:45.867Z,1.30
2018-09-12T21:42:13.291Z,1.47
2018-09-12T21:44:40.864Z,1.50
2018-09-12T21:47:08.553Z,1.20
2018-09-12T21:49:35.939Z,1.20
2018-09-12T21:52:03.467Z,1.10
2018-09-12T21:54:30.907Z,1.10
2018-09-12T21:56:58.363Z,1.30
2018-09-12T21:59:25.760Z,1.07
2018-09-12T22:01:53.147Z,1.03
2018-09-12T22:04:20.767Z,1.43
2018-09-12T22:06:48.203Z,1.10
2018-09-12T22:09:15.722Z,1.33
2018-09-12T22:11:43.283Z,1.30
2018-09-12T22:14:10.811Z,1.00
2018-09-12T22:16:38.198Z,1.10
2018-09-12T22:19:06.404Z,1.30
2018-09-12T22:21:33.884Z,1.20
2018-09-12T22:24:01.376Z,1.67
2018-09-12T22:26:29.144Z,1.10
2018-09-12T22:28:56.647Z,1.10
2018-09-12T22:31:24.311Z,1.20
2018-09-12T22:33:52.090Z,1.00
2018-09-12T22:36:19.519Z,1.23
2018-09-12T22:38:47.025Z,1.20
2018-09-12T22:41:14.434Z,1.00
2018-09-12T22:43:41.930Z,1.20
2018-09-12T22:46:09.299Z,1.40
2018-09-12T22:48:36.811Z,1.43
2018-09-12T22:51:04.206Z,1.10
2018-09-12T22:53:31.611Z,1.20
2018-09-12T22:55:59.507Z,1.13
2018-09-12T22:58:26.906Z,1.10
2018-09-12T23:00:54.505Z,1.30
2018-09-12T23:03:21.878Z,1.30
2018-09-12T23:05:49.302Z,1.20
2018-09-12T23:08:17.127Z,1.00
2018-09-12T23:10:44.516Z,1.40
2018-09-12T23:13:12.054Z,1.30
2018-09-12T23:15:39.476Z,1.53
2018-09-12T23:18:06.839Z,1.43
2018-09-12T23:20:34.226Z,1.40
2018-09-12T23:23:01.751Z,1.40
2018-09-12T23:25:29.403Z,1.20
2018-09-12T23:27:57.039Z,1.33
2018-09-12T23:30:24.560Z,1.47
2018-09-12T23:32:51.943Z,1.40
2018-09-12T23:35:19.796Z,1.30
2018-09-12T23:37:47.868Z,1.50
2018-09-12T23:40:15.549Z,1.03
2018-09-12T23:42:42.957Z,1.20
2018-09-12T23:45:10.542Z,1.60
2018-09-12T23:47:37.923Z,1.40
2018-09-12T23:50:05.687Z,1.30
2018-09-12T23:52:33.131Z,1.30
2018-09-12T23:55:00.503Z,1.67
2018-09-12T23:57:28.132Z,1.13
2018-09-12T23:59:55.590Z,0.90
